sensor_id;sensor_type;location;lat;lon;timestamp;P1;durP1;ratioP1;P2;durP2;ratioP2
70757;SDS011;59316;52.964;7.102;2022-08-19T00:00:13;28.87;;;9.10;;
70757;SDS011;59316;52.964;7.102;2022-08-19T00:05:15;28.25;;;9.23;;
70757;SDS011;59316;52.964;7.102;2022-08-19T00:10:18;33.97;;;10.77;;
70757;SDS011;59316;52.964;7.102;2022-08-19T00:15:22;28.70;;;9.20;;
70757;SDS011;59316;52.964;7.102;2022-08-19T00:20:25;25.15;;;9.15;;
70757;SDS011;59316;52.964;7.102;2022-08-19T00:25:27;28.70;;;10.03;;
70757;SDS011;59316;52.964;7.102;2022-08-19T00:30:31;27.90;;;9.40;;
70757;SDS011;59316;52.964;7.102;2022-08-19T00:35:33;25.05;;;9.60;;
70757;SDS011;59316;52.964;7.102;2022-08-19T00:40:36;35.20;;;10.63;;
70757;SDS011;59316;52.964;7.102;2022-08-19T00:45:39;27.70;;;9.85;;
70757;SDS011;59316;52.964;7.102;2022-08-19T00:50:42;21.77;;;6.15;;
70757;SDS011;59316;52.964;7.102;2022-08-19T00:55:53;17.92;;;6.72;;
70757;SDS011;59316;52.964;7.102;2022-08-19T01:00:58;19.08;;;7.13;;
70757;SDS011;59316;52.964;7.102;2022-08-19T01:06:02;25.75;;;5.43;;
70757;SDS011;59316;52.964;7.102;2022-08-19T01:11:05;20.30;;;6.75;;
70757;SDS011;59316;52.964;7.102;2022-08-19T01:16:11;28.33;;;8.38;;
70757;SDS011;59316;52.964;7.102;2022-08-19T01:26:28;26.98;;;9.13;;
70757;SDS011;59316;52.964;7.102;2022-08-19T01:31:32;34.22;;;10.52;;
70757;SDS011;59316;52.964;7.102;2022-08-19T01:36:42;31.50;;;10.30;;
70757;SDS011;59316;52.964;7.102;2022-08-19T01:41:46;33.22;;;10.23;;
70757;SDS011;59316;52.964;7.102;2022-08-19T01:46:50;31.15;;;9.43;;
70757;SDS011;59316;52.964;7.102;2022-08-19T01:51:53;34.45;;;11.02;;
70757;SDS011;59316;52.964;7.102;2022-08-19T01:56:57;22.17;;;8.82;;
70757;SDS011;59316;52.964;7.102;2022-08-19T02:02:12;82.13;;;6.88;;
70757;SDS011;59316;52.964;7.102;2022-08-19T02:07:15;44.60;;;7.65;;
70757;SDS011;59316;52.964;7.102;2022-08-19T02:12:21;45.30;;;5.40;;
70757;SDS011;59316;52.964;7.102;2022-08-19T02:17:25;26.75;;;4.45;;
70757;SDS011;59316;52.964;7.102;2022-08-19T02:22:27;16.13;;;3.78;;
70757;SDS011;59316;52.964;7.102;2022-08-19T02:27:29;27.20;;;7.47;;
70757;SDS011;59316;52.964;7.102;2022-08-19T02:32:31;35.55;;;7.63;;
70757;SDS011;59316;52.964;7.102;2022-08-19T02:37:34;34.58;;;9.00;;
70757;SDS011;59316;52.964;7.102;2022-08-19T02:42:36;32.72;;;8.25;;
70757;SDS011;59316;52.964;7.102;2022-08-19T02:47:39;35.83;;;9.47;;
70757;SDS011;59316;52.964;7.102;2022-08-19T02:52:41;29.70;;;8.77;;
70757;SDS011;59316;52.964;7.102;2022-08-19T02:57:43;56.30;;;14.07;;
70757;SDS011;59316;52.964;7.102;2022-08-19T03:02:46;53.35;;;12.70;;
70757;SDS011;59316;52.964;7.102;2022-08-19T03:07:48;43.10;;;11.02;;
70757;SDS011;59316;52.964;7.102;2022-08-19T03:12:51;34.53;;;8.98;;
70757;SDS011;59316;52.964;7.102;2022-08-19T03:17:54;41.03;;;9.90;;
70757;SDS011;59316;52.964;7.102;2022-08-19T03:22:58;39.67;;;10.90;;
70757;SDS011;59316;52.964;7.102;2022-08-19T03:28:00;65.20;;;8.45;;
70757;SDS011;59316;52.964;7.102;2022-08-19T03:33:02;35.67;;;7.70;;
70757;SDS011;59316;52.964;7.102;2022-08-19T03:38:06;23.70;;;6.95;;
70757;SDS011;59316;52.964;7.102;2022-08-19T03:43:08;67.30;;;8.30;;
70757;SDS011;59316;52.964;7.102;2022-08-19T03:48:10;49.92;;;10.85;;
70757;SDS011;59316;52.964;7.102;2022-08-19T03:53:12;42.22;;;10.18;;
70757;SDS011;59316;52.964;7.102;2022-08-19T03:58:14;32.97;;;9.02;;
70757;SDS011;59316;52.964;7.102;2022-08-19T04:03:17;25.23;;;9.75;;
70757;SDS011;59316;52.964;7.102;2022-08-19T04:08:19;35.92;;;10.18;;
70757;SDS011;59316;52.964;7.102;2022-08-19T04:13:22;37.35;;;10.27;;
70757;SDS011;59316;52.964;7.102;2022-08-19T04:18:24;60.47;;;12.05;;
70757;SDS011;59316;52.964;7.102;2022-08-19T04:23:26;55.60;;;11.80;;
70757;SDS011;59316;52.964;7.102;2022-08-19T04:28:30;46.10;;;11.73;;
70757;SDS011;59316;52.964;7.102;2022-08-19T04:33:34;47.97;;;11.40;;
70757;SDS011;59316;52.964;7.102;2022-08-19T04:38:36;57.10;;;12.15;;
70757;SDS011;59316;52.964;7.102;2022-08-19T04:43:39;38.72;;;9.63;;
70757;SDS011;59316;52.964;7.102;2022-08-19T04:48:41;47.05;;;11.07;;
70757;SDS011;59316;52.964;7.102;2022-08-19T04:53:50;46.03;;;13.63;;
70757;SDS011;59316;52.964;7.102;2022-08-19T04:58:54;67.35;;;14.85;;
70757;SDS011;59316;52.964;7.102;2022-08-19T05:03:58;95.05;;;16.95;;
70757;SDS011;59316;52.964;7.102;2022-08-19T05:09:04;125.93;;;17.60;;
70757;SDS011;59316;52.964;7.102;2022-08-19T05:14:07;78.97;;;14.57;;
70757;SDS011;59316;52.964;7.102;2022-08-19T05:19:10;82.65;;;15.18;;
70757;SDS011;59316;52.964;7.102;2022-08-19T05:24:13;60.30;;;13.18;;
70757;SDS011;59316;52.964;7.102;2022-08-19T05:34:23;52.22;;;13.40;;
70757;SDS011;59316;52.964;7.102;2022-08-19T05:39:27;78.32;;;14.60;;
70757;SDS011;59316;52.964;7.102;2022-08-19T05:44:31;81.13;;;15.20;;
70757;SDS011;59316;52.964;7.102;2022-08-19T05:49:35;83.88;;;15.73;;
70757;SDS011;59316;52.964;7.102;2022-08-19T05:54:39;106.35;;;17.40;;
70757;SDS011;59316;52.964;7.102;2022-08-19T05:59:42;121.15;;;18.60;;
70757;SDS011;59316;52.964;7.102;2022-08-19T06:04:44;92.70;;;19.73;;
70757;SDS011;59316;52.964;7.102;2022-08-19T06:09:46;108.47;;;22.45;;
70757;SDS011;59316;52.964;7.102;2022-08-19T06:15:04;93.20;;;21.58;;
70757;SDS011;59316;52.964;7.102;2022-08-19T06:20:09;79.53;;;18.50;;
70757;SDS011;59316;52.964;7.102;2022-08-19T06:25:15;39.00;;;13.90;;
70757;SDS011;59316;52.964;7.102;2022-08-19T06:30:17;44.33;;;16.60;;
70757;SDS011;59316;52.964;7.102;2022-08-19T06:35:20;37.47;;;13.80;;
70757;SDS011;59316;52.964;7.102;2022-08-19T06:40:22;34.13;;;14.20;;
70757;SDS011;59316;52.964;7.102;2022-08-19T06:45:24;35.25;;;15.25;;
70757;SDS011;59316;52.964;7.102;2022-08-19T06:50:36;24.67;;;13.32;;
70757;SDS011;59316;52.964;7.102;2022-08-19T06:55:40;20.27;;;11.98;;
70757;SDS011;59316;52.964;7.102;2022-08-19T07:00:42;17.75;;;11.23;;
70757;SDS011;59316;52.964;7.102;2022-08-19T07:05:45;18.08;;;11.65;;
70757;SDS011;59316;52.964;7.102;2022-08-19T07:10:48;17.95;;;11.43;;
70757;SDS011;59316;52.964;7.102;2022-08-19T07:15:50;17.67;;;11.38;;
70757;SDS011;59316;52.964;7.102;2022-08-19T07:21:01;17.33;;;11.40;;
70757;SDS011;59316;52.964;7.102;2022-08-19T07:26:09;15.85;;;9.85;;
70757;SDS011;59316;52.964;7.102;2022-08-19T07:31:18;12.90;;;9.37;;
70757;SDS011;59316;52.964;7.102;2022-08-19T07:36:26;13.02;;;8.80;;
70757;SDS011;59316;52.964;7.102;2022-08-19T07:41:29;11.98;;;8.88;;
70757;SDS011;59316;52.964;7.102;2022-08-19T07:51:35;11.18;;;8.57;;
70757;SDS011;59316;52.964;7.102;2022-08-19T07:56:38;8.55;;;6.85;;
70757;SDS011;59316;52.964;7.102;2022-08-19T08:06:42;9.43;;;6.90;;
70757;SDS011;59316;52.964;7.102;2022-08-19T08:16:49;10.52;;;7.10;;
70757;SDS011;59316;52.964;7.102;2022-08-19T08:21:53;7.95;;;6.45;;
70757;SDS011;59316;52.964;7.102;2022-08-19T08:26:57;7.85;;;5.90;;
70757;SDS011;59316;52.964;7.102;2022-08-19T08:32:01;7.43;;;5.55;;
70757;SDS011;59316;52.964;7.102;2022-08-19T08:37:03;10.77;;;6.50;;
70757;SDS011;59316;52.964;7.102;2022-08-19T08:47:18;7.30;;;5.63;;
70757;SDS011;59316;52.964;7.102;2022-08-19T08:52:31;6.55;;;5.45;;
70757;SDS011;59316;52.964;7.102;2022-08-19T08:57:49;10.48;;;5.82;;
70757;SDS011;59316;52.964;7.102;2022-08-19T09:03:14;6.30;;;5.70;;
70757;SDS011;59316;52.964;7.102;2022-08-19T09:19:05;8.32;;;6.72;;
70757;SDS011;59316;52.964;7.102;2022-08-19T09:24:09;10.90;;;7.60;;
70757;SDS011;59316;52.964;7.102;2022-08-19T09:29:11;11.38;;;7.45;;
70757;SDS011;59316;52.964;7.102;2022-08-19T09:34:13;7.40;;;6.18;;
70757;SDS011;59316;52.964;7.102;2022-08-19T09:39:22;7.85;;;6.97;;
70757;SDS011;59316;52.964;7.102;2022-08-19T09:44:24;7.78;;;6.13;;
70757;SDS011;59316;52.964;7.102;2022-08-19T09:49:27;8.20;;;4.95;;
70757;SDS011;59316;52.964;7.102;2022-08-19T09:54:30;7.07;;;6.00;;
70757;SDS011;59316;52.964;7.102;2022-08-19T09:59:32;6.50;;;5.60;;
70757;SDS011;59316;52.964;7.102;2022-08-19T10:04:35;6.25;;;4.75;;
70757;SDS011;59316;52.964;7.102;2022-08-19T10:09:37;6.88;;;4.78;;
70757;SDS011;59316;52.964;7.102;2022-08-19T10:14:40;5.47;;;4.47;;
70757;SDS011;59316;52.964;7.102;2022-08-19T10:19:43;5.20;;;4.43;;
70757;SDS011;59316;52.964;7.102;2022-08-19T10:24:57;6.28;;;5.28;;
70757;SDS011;59316;52.964;7.102;2022-08-19T10:30:03;4.43;;;4.00;;
70757;SDS011;59316;52.964;7.102;2022-08-19T10:35:21;6.38;;;4.00;;
70757;SDS011;59316;52.964;7.102;2022-08-19T10:40:24;3.90;;;3.50;;
70757;SDS011;59316;52.964;7.102;2022-08-19T10:45:28;6.30;;;3.80;;
70757;SDS011;59316;52.964;7.102;2022-08-19T10:50:30;3.20;;;2.90;;
70757;SDS011;59316;52.964;7.102;2022-08-19T10:55:32;3.05;;;2.50;;
70757;SDS011;59316;52.964;7.102;2022-08-19T11:00:35;3.67;;;2.47;;
70757;SDS011;59316;52.964;7.102;2022-08-19T11:05:38;3.80;;;3.40;;
70757;SDS011;59316;52.964;7.102;2022-08-19T11:10:41;4.18;;;3.67;;
70757;SDS011;59316;52.964;7.102;2022-08-19T11:15:58;4.60;;;3.38;;
70757;SDS011;59316;52.964;7.102;2022-08-19T11:26:16;4.15;;;3.63;;
70757;SDS011;59316;52.964;7.102;2022-08-19T11:31:20;4.35;;;3.45;;
70757;SDS011;59316;52.964;7.102;2022-08-19T11:36:30;3.93;;;3.40;;
70757;SDS011;59316;52.964;7.102;2022-08-19T11:41:32;5.22;;;3.30;;
70757;SDS011;59316;52.964;7.102;2022-08-19T11:46:36;5.43;;;4.10;;
70757;SDS011;59316;52.964;7.102;2022-08-19T11:51:39;4.85;;;4.10;;
70757;SDS011;59316;52.964;7.102;2022-08-19T11:56:42;7.82;;;4.70;;
70757;SDS011;59316;52.964;7.102;2022-08-19T12:01:45;4.55;;;4.07;;
70757;SDS011;59316;52.964;7.102;2022-08-19T12:06:47;4.25;;;3.85;;
70757;SDS011;59316;52.964;7.102;2022-08-19T12:11:49;4.78;;;3.70;;
70757;SDS011;59316;52.964;7.102;2022-08-19T12:16:51;4.85;;;3.92;;
70757;SDS011;59316;52.964;7.102;2022-08-19T12:21:54;6.07;;;5.28;;
70757;SDS011;59316;52.964;7.102;2022-08-19T12:27:00;7.20;;;5.15;;
70757;SDS011;59316;52.964;7.102;2022-08-19T12:32:04;6.72;;;5.22;;
70757;SDS011;59316;52.964;7.102;2022-08-19T12:37:06;5.63;;;4.45;;
70757;SDS011;59316;52.964;7.102;2022-08-19T12:42:09;5.30;;;4.80;;
70757;SDS011;59316;52.964;7.102;2022-08-19T12:47:14;7.40;;;4.72;;
70757;SDS011;59316;52.964;7.102;2022-08-19T12:52:17;4.63;;;4.22;;
70757;SDS011;59316;52.964;7.102;2022-08-19T12:57:26;6.18;;;4.82;;
70757;SDS011;59316;52.964;7.102;2022-08-19T13:02:34;6.63;;;5.32;;
70757;SDS011;59316;52.964;7.102;2022-08-19T13:07:40;6.93;;;4.97;;
70757;SDS011;59316;52.964;7.102;2022-08-19T13:12:43;5.50;;;4.65;;
70757;SDS011;59316;52.964;7.102;2022-08-19T13:17:48;6.15;;;5.00;;
70757;SDS011;59316;52.964;7.102;2022-08-19T13:22:51;5.10;;;4.60;;
70757;SDS011;59316;52.964;7.102;2022-08-19T13:27:54;7.22;;;5.35;;
70757;SDS011;59316;52.964;7.102;2022-08-19T13:32:56;5.80;;;5.00;;
70757;SDS011;59316;52.964;7.102;2022-08-19T13:37:59;5.88;;;5.15;;
70757;SDS011;59316;52.964;7.102;2022-08-19T13:43:01;6.68;;;5.13;;
70757;SDS011;59316;52.964;7.102;2022-08-19T13:48:24;6.38;;;5.78;;
70757;SDS011;59316;52.964;7.102;2022-08-19T13:53:27;7.18;;;5.60;;
70757;SDS011;59316;52.964;7.102;2022-08-19T13:58:30;8.40;;;6.13;;
70757;SDS011;59316;52.964;7.102;2022-08-19T14:03:33;7.47;;;6.18;;
70757;SDS011;59316;52.964;7.102;2022-08-19T14:08:36;10.07;;;6.38;;
70757;SDS011;59316;52.964;7.102;2022-08-19T14:13:38;7.82;;;6.28;;
70757;SDS011;59316;52.964;7.102;2022-08-19T14:18:40;7.88;;;6.35;;
70757;SDS011;59316;52.964;7.102;2022-08-19T14:23:43;6.20;;;4.53;;
70757;SDS011;59316;52.964;7.102;2022-08-19T14:28:46;3.53;;;3.00;;
70757;SDS011;59316;52.964;7.102;2022-08-19T14:33:48;4.57;;;3.47;;
70757;SDS011;59316;52.964;7.102;2022-08-19T14:38:51;4.88;;;3.45;;
70757;SDS011;59316;52.964;7.102;2022-08-19T14:43:53;6.22;;;4.10;;
70757;SDS011;59316;52.964;7.102;2022-08-19T14:48:56;6.40;;;3.28;;
70757;SDS011;59316;52.964;7.102;2022-08-19T14:54:01;5.97;;;3.08;;
70757;SDS011;59316;52.964;7.102;2022-08-19T14:59:03;4.97;;;3.08;;
70757;SDS011;59316;52.964;7.102;2022-08-19T15:04:05;10.18;;;3.78;;
70757;SDS011;59316;52.964;7.102;2022-08-19T15:09:08;9.68;;;6.93;;
70757;SDS011;59316;52.964;7.102;2022-08-19T15:14:11;11.35;;;8.23;;
70757;SDS011;59316;52.964;7.102;2022-08-19T15:19:13;13.73;;;9.98;;
70757;SDS011;59316;52.964;7.102;2022-08-19T15:24:15;18.15;;;10.88;;
70757;SDS011;59316;52.964;7.102;2022-08-19T15:29:19;15.10;;;11.55;;
70757;SDS011;59316;52.964;7.102;2022-08-19T15:34:22;16.02;;;11.63;;
70757;SDS011;59316;52.964;7.102;2022-08-19T15:39:25;14.20;;;10.98;;
70757;SDS011;59316;52.964;7.102;2022-08-19T15:44:27;16.33;;;11.43;;
70757;SDS011;59316;52.964;7.102;2022-08-19T15:49:30;16.45;;;11.27;;
70757;SDS011;59316;52.964;7.102;2022-08-19T15:54:32;17.92;;;12.20;;
70757;SDS011;59316;52.964;7.102;2022-08-19T15:59:35;14.77;;;9.85;;
70757;SDS011;59316;52.964;7.102;2022-08-19T16:04:48;15.07;;;10.40;;
70757;SDS011;59316;52.964;7.102;2022-08-19T16:09:52;12.10;;;9.68;;
70757;SDS011;59316;52.964;7.102;2022-08-19T16:19:57;13.70;;;7.97;;
70757;SDS011;59316;52.964;7.102;2022-08-19T16:25:00;13.68;;;9.20;;
70757;SDS011;59316;52.964;7.102;2022-08-19T16:30:02;11.55;;;8.02;;
70757;SDS011;59316;52.964;7.102;2022-08-19T16:35:05;15.70;;;8.57;;
70757;SDS011;59316;52.964;7.102;2022-08-19T16:40:08;19.17;;;9.07;;
70757;SDS011;59316;52.964;7.102;2022-08-19T16:45:11;12.07;;;7.55;;
70757;SDS011;59316;52.964;7.102;2022-08-19T16:50:16;13.93;;;8.32;;
70757;SDS011;59316;52.964;7.102;2022-08-19T16:55:34;14.75;;;9.38;;
70757;SDS011;59316;52.964;7.102;2022-08-19T17:00:36;11.13;;;8.23;;
70757;SDS011;59316;52.964;7.102;2022-08-19T17:10:44;14.43;;;8.57;;
70757;SDS011;59316;52.964;7.102;2022-08-19T17:16:07;11.43;;;8.57;;
70757;SDS011;59316;52.964;7.102;2022-08-19T17:21:09;16.77;;;9.00;;
70757;SDS011;59316;52.964;7.102;2022-08-19T17:31:20;14.55;;;10.02;;
70757;SDS011;59316;52.964;7.102;2022-08-19T17:36:24;12.82;;;8.70;;
70757;SDS011;59316;52.964;7.102;2022-08-19T17:41:30;11.75;;;8.13;;
70757;SDS011;59316;52.964;7.102;2022-08-19T17:46:32;10.05;;;7.72;;
70757;SDS011;59316;52.964;7.102;2022-08-19T17:56:37;10.82;;;7.68;;
70757;SDS011;59316;52.964;7.102;2022-08-19T18:01:39;18.83;;;9.90;;
70757;SDS011;59316;52.964;7.102;2022-08-19T18:06:55;19.08;;;10.75;;
70757;SDS011;59316;52.964;7.102;2022-08-19T18:11:57;15.90;;;10.52;;
70757;SDS011;59316;52.964;7.102;2022-08-19T18:17:01;14.27;;;10.90;;
70757;SDS011;59316;52.964;7.102;2022-08-19T18:22:06;13.23;;;9.32;;
70757;SDS011;59316;52.964;7.102;2022-08-19T18:27:08;11.52;;;9.27;;
70757;SDS011;59316;52.964;7.102;2022-08-19T18:32:11;13.40;;;9.23;;
70757;SDS011;59316;52.964;7.102;2022-08-19T18:37:14;14.43;;;9.20;;
70757;SDS011;59316;52.964;7.102;2022-08-19T18:42:17;14.40;;;9.88;;
70757;SDS011;59316;52.964;7.102;2022-08-19T18:47:20;12.40;;;9.45;;
70757;SDS011;59316;52.964;7.102;2022-08-19T18:52:23;13.95;;;8.77;;
70757;SDS011;59316;52.964;7.102;2022-08-19T18:57:25;11.27;;;8.30;;
70757;SDS011;59316;52.964;7.102;2022-08-19T19:02:27;14.32;;;8.52;;
70757;SDS011;59316;52.964;7.102;2022-08-19T19:07:30;12.95;;;9.80;;
70757;SDS011;59316;52.964;7.102;2022-08-19T19:12:35;13.32;;;9.63;;
70757;SDS011;59316;52.964;7.102;2022-08-19T19:17:43;16.10;;;11.90;;
70757;SDS011;59316;52.964;7.102;2022-08-19T19:22:45;21.50;;;13.75;;
70757;SDS011;59316;52.964;7.102;2022-08-19T19:27:47;27.80;;;16.83;;
70757;SDS011;59316;52.964;7.102;2022-08-19T19:32:50;28.70;;;17.80;;
70757;SDS011;59316;52.964;7.102;2022-08-19T19:37:52;35.03;;;20.17;;
70757;SDS011;59316;52.964;7.102;2022-08-19T19:42:54;31.75;;;20.20;;
70757;SDS011;59316;52.964;7.102;2022-08-19T19:47:57;34.33;;;20.13;;
70757;SDS011;59316;52.964;7.102;2022-08-19T19:52:59;29.63;;;18.80;;
70757;SDS011;59316;52.964;7.102;2022-08-19T19:58:01;25.40;;;16.02;;
70757;SDS011;59316;52.964;7.102;2022-08-19T20:03:04;23.10;;;14.93;;
70757;SDS011;59316;52.964;7.102;2022-08-19T20:08:06;23.13;;;14.60;;
70757;SDS011;59316;52.964;7.102;2022-08-19T20:13:08;26.58;;;16.20;;
70757;SDS011;59316;52.964;7.102;2022-08-19T20:18:12;31.27;;;17.60;;
70757;SDS011;59316;52.964;7.102;2022-08-19T20:23:17;27.95;;;15.57;;
70757;SDS011;59316;52.964;7.102;2022-08-19T20:28:20;21.83;;;12.57;;
70757;SDS011;59316;52.964;7.102;2022-08-19T20:33:22;20.15;;;11.00;;
70757;SDS011;59316;52.964;7.102;2022-08-19T20:38:24;24.33;;;12.15;;
70757;SDS011;59316;52.964;7.102;2022-08-19T20:43:27;21.05;;;12.15;;
70757;SDS011;59316;52.964;7.102;2022-08-19T20:48:29;24.08;;;12.40;;
70757;SDS011;59316;52.964;7.102;2022-08-19T20:53:31;23.63;;;12.80;;
70757;SDS011;59316;52.964;7.102;2022-08-19T20:58:34;27.10;;;12.98;;
70757;SDS011;59316;52.964;7.102;2022-08-19T21:03:38;25.83;;;13.27;;
70757;SDS011;59316;52.964;7.102;2022-08-19T21:08:44;27.83;;;13.52;;
70757;SDS011;59316;52.964;7.102;2022-08-19T21:13:49;22.15;;;13.00;;
70757;SDS011;59316;52.964;7.102;2022-08-19T21:18:52;23.23;;;12.87;;
70757;SDS011;59316;52.964;7.102;2022-08-19T21:23:54;23.67;;;13.53;;
70757;SDS011;59316;52.964;7.102;2022-08-19T21:28:56;28.30;;;15.13;;
70757;SDS011;59316;52.964;7.102;2022-08-19T21:33:58;29.73;;;14.73;;
70757;SDS011;59316;52.964;7.102;2022-08-19T21:39:00;32.30;;;14.77;;
70757;SDS011;59316;52.964;7.102;2022-08-19T21:44:02;30.25;;;15.07;;
70757;SDS011;59316;52.964;7.102;2022-08-19T21:49:05;22.75;;;13.63;;
70757;SDS011;59316;52.964;7.102;2022-08-19T21:54:07;23.05;;;13.50;;
70757;SDS011;59316;52.964;7.102;2022-08-19T21:59:15;31.05;;;15.95;;
70757;SDS011;59316;52.964;7.102;2022-08-19T22:04:17;36.67;;;16.95;;
70757;SDS011;59316;52.964;7.102;2022-08-19T22:14:22;42.13;;;18.58;;
70757;SDS011;59316;52.964;7.102;2022-08-19T22:19:24;32.67;;;16.20;;
70757;SDS011;59316;52.964;7.102;2022-08-19T22:24:26;38.07;;;17.23;;
70757;SDS011;59316;52.964;7.102;2022-08-19T22:29:28;35.60;;;15.20;;
70757;SDS011;59316;52.964;7.102;2022-08-19T22:34:35;39.10;;;17.60;;
70757;SDS011;59316;52.964;7.102;2022-08-19T22:39:37;36.93;;;17.20;;
70757;SDS011;59316;52.964;7.102;2022-08-19T22:44:39;44.47;;;18.50;;
70757;SDS011;59316;52.964;7.102;2022-08-19T22:49:41;33.88;;;16.15;;
70757;SDS011;59316;52.964;7.102;2022-08-19T22:54:45;35.47;;;17.10;;
70757;SDS011;59316;52.964;7.102;2022-08-19T22:59:52;36.58;;;16.77;;
70757;SDS011;59316;52.964;7.102;2022-08-19T23:04:55;44.75;;;18.83;;
70757;SDS011;59316;52.964;7.102;2022-08-19T23:09:57;51.50;;;20.13;;
70757;SDS011;59316;52.964;7.102;2022-08-19T23:15:07;59.07;;;23.60;;
70757;SDS011;59316;52.964;7.102;2022-08-19T23:20:15;42.67;;;18.98;;
70757;SDS011;59316;52.964;7.102;2022-08-19T23:25:20;57.40;;;21.15;;
70757;SDS011;59316;52.964;7.102;2022-08-19T23:30:24;48.72;;;20.33;;
70757;SDS011;59316;52.964;7.102;2022-08-19T23:35:30;50.97;;;21.30;;
70757;SDS011;59316;52.964;7.102;2022-08-19T23:40:35;51.15;;;22.70;;
70757;SDS011;59316;52.964;7.102;2022-08-19T23:45:39;57.45;;;22.75;;
70757;SDS011;59316;52.964;7.102;2022-08-19T23:50:52;49.47;;;21.45;;
70757;SDS011;59316;52.964;7.102;2022-08-19T23:55:55;47.45;;;20.20;;
